createdAt,value
2018-09-04T00:02:04.628Z,20.00
2018-09-04T00:04:32.805Z,19.50
2018-09-04T00:07:00.969Z,20.17
2018-09-04T00:09:29.146Z,18.97
2018-09-04T00:11:57.324Z,20.47
2018-09-04T00:14:25.500Z,21.80
2018-09-04T00:16:53.676Z,20.97
2018-09-04T00:19:21.844Z,21.43
2018-09-04T00:21:50.038Z,20.00
2018-09-04T00:24:18.201Z,20.60
2018-09-04T00:26:46.356Z,19.70
2018-09-04T00:29:14.530Z,20.67
2018-09-04T00:31:42.693Z,19.27
2018-09-04T00:34:10.892Z,21.60
2018-09-04T00:36:39.048Z,20.13
2018-09-04T00:43:53.321Z,19.53
2018-09-04T00:46:21.538Z,20.00
2018-09-04T00:48:49.712Z,19.63
2018-09-04T00:51:17.880Z,22.30
2018-09-04T00:53:46.056Z,21.93
2018-09-04T00:56:14.251Z,20.70
2018-09-04T00:58:42.408Z,21.23
2018-09-04T01:01:10.581Z,21.07
2018-09-04T01:03:38.740Z,21.33
2018-09-04T01:06:06.928Z,21.43
2018-09-04T01:08:35.091Z,21.73
2018-09-04T01:11:03.279Z,22.43
2018-09-04T01:13:31.448Z,21.03
2018-09-04T01:15:59.612Z,23.17
2018-09-04T01:18:27.804Z,21.73
2018-09-04T01:20:56.053Z,21.03
2018-09-04T01:23:24.208Z,23.93
2018-09-04T01:25:52.384Z,23.13
2018-09-04T01:28:20.540Z,23.57
2018-09-04T01:30:48.733Z,23.33
2018-09-04T01:33:16.893Z,21.73
2018-09-04T01:35:45.066Z,22.97
2018-09-04T01:38:13.232Z,24.13
2018-09-04T01:40:41.458Z,23.30
2018-09-04T01:43:09.607Z,23.17
2018-09-04T01:45:37.782Z,23.90
2018-09-04T01:48:05.952Z,22.63
2018-09-04T01:50:34.124Z,24.87
2018-09-04T01:53:02.324Z,23.97
2018-09-04T01:55:30.509Z,25.23
2018-09-04T01:57:58.677Z,24.23
2018-09-04T02:00:27.172Z,26.03
2018-09-04T02:02:55.552Z,24.30
2018-09-04T02:05:23.778Z,25.53
2018-09-04T02:07:51.948Z,26.13
2018-09-04T02:10:21.204Z,27.77
2018-09-04T02:12:49.402Z,26.80
2018-09-04T02:15:17.596Z,24.27
2018-09-04T02:17:45.777Z,25.33
2018-09-04T02:20:13.976Z,26.97
2018-09-04T02:22:42.148Z,26.43
2018-09-04T02:25:10.385Z,27.00
2018-09-04T02:27:38.793Z,27.30
2018-09-04T02:30:07.004Z,26.60
2018-09-04T02:32:35.204Z,26.97
2018-09-04T02:35:03.404Z,26.40
2018-09-04T02:37:31.645Z,26.97
2018-09-04T02:39:59.841Z,27.87
2018-09-04T02:42:28.011Z,29.67
2018-09-04T02:44:56.179Z,27.60
2018-09-04T02:47:24.344Z,25.47
2018-09-04T02:49:52.538Z,26.77
2018-09-04T02:52:20.709Z,27.30
2018-09-04T02:54:48.936Z,26.83
2018-09-04T02:57:17.105Z,26.80
2018-09-04T02:59:45.278Z,26.73
2018-09-04T03:02:13.444Z,26.17
2018-09-04T03:04:41.616Z,28.83
2018-09-04T03:07:09.778Z,25.73
2018-09-04T03:09:37.949Z,27.60
2018-09-04T03:12:06.164Z,28.33
2018-09-04T03:14:34.298Z,27.37
2018-09-04T03:17:02.527Z,28.53
2018-09-04T03:19:30.681Z,28.00
2018-09-04T03:21:58.880Z,28.73
2018-09-04T03:24:27.061Z,25.60
2018-09-04T03:26:55.259Z,26.67
2018-09-04T03:29:23.448Z,27.23
2018-09-04T03:31:51.638Z,26.77
2018-09-04T03:34:19.826Z,26.30
2018-09-04T03:36:47.992Z,25.77
2018-09-04T03:39:16.185Z,26.17
2018-09-04T03:41:44.336Z,26.33
2018-09-04T03:44:12.526Z,26.60
2018-09-04T03:46:40.680Z,26.53
2018-09-04T03:49:08.853Z,26.20
2018-09-04T03:51:37.053Z,27.93
2018-09-04T03:54:05.260Z,26.27
2018-09-04T03:56:33.438Z,27.40
2018-09-04T03:59:01.636Z,26.10
2018-09-04T04:01:29.837Z,24.70
2018-09-04T04:03:57.968Z,26.83
2018-09-04T04:06:26.136Z,25.57
2018-09-04T04:08:54.311Z,25.77
2018-09-04T04:11:22.477Z,24.50
2018-09-04T04:13:50.652Z,25.03
2018-09-04T04:16:18.832Z,23.33
2018-09-04T04:18:47.026Z,24.07
2018-09-04T04:21:15.187Z,22.73
2018-09-04T04:23:43.427Z,23.40
2018-09-04T04:26:11.572Z,22.50
2018-09-04T04:28:39.736Z,22.90
2018-09-04T04:31:07.896Z,24.33
2018-09-04T04:33:36.062Z,24.37
2018-09-04T04:36:04.226Z,22.83
2018-09-04T04:38:32.411Z,25.00
2018-09-04T04:41:00.584Z,23.83
2018-09-04T04:43:28.781Z,22.13
2018-09-04T04:45:56.934Z,22.70
2018-09-04T04:48:25.125Z,21.10
2018-09-04T04:50:53.334Z,20.63
2018-09-04T04:53:21.525Z,22.27
2018-09-04T04:55:49.680Z,20.57
2018-09-04T04:58:17.852Z,18.80
2018-09-04T05:00:46.026Z,21.80
2018-09-04T05:03:14.197Z,21.27
2018-09-04T05:05:42.404Z,21.70
2018-09-04T05:08:10.571Z,22.27
2018-09-04T05:10:38.749Z,21.93
2018-09-04T05:13:06.940Z,23.00
2018-09-04T05:15:35.117Z,20.63
2018-09-04T05:18:03.296Z,21.23
2018-09-04T05:20:31.469Z,22.23
2018-09-04T05:22:59.633Z,22.73
2018-09-04T05:25:27.816Z,21.90
2018-09-04T05:27:55.996Z,23.00
2018-09-04T05:30:24.205Z,23.80
2018-09-04T05:33:01.647Z,22.77
2018-09-04T05:35:35.040Z,23.53
2018-09-04T05:38:03.396Z,22.97
2018-09-04T05:40:31.568Z,22.73
2018-09-04T05:43:02.022Z,23.60
2018-09-04T05:45:31.413Z,24.27
2018-09-04T05:48:03.687Z,23.50
2018-09-04T05:50:31.980Z,25.33
2018-09-04T05:53:00.189Z,26.37
2018-09-04T05:55:28.375Z,23.43
2018-09-04T05:57:56.692Z,25.23
2018-09-04T06:00:27.428Z,24.67
2018-09-04T06:02:55.601Z,23.13
2018-09-04T06:05:23.968Z,24.73
2018-09-04T06:07:52.364Z,23.70
2018-09-04T06:10:20.529Z,22.77
2018-09-04T06:12:49.117Z,23.13
2018-09-04T06:15:17.551Z,22.27
2018-09-04T06:17:46.516Z,24.80
2018-09-04T06:20:14.716Z,24.57
2018-09-04T06:22:42.888Z,23.33
2018-09-04T06:25:11.065Z,22.97
2018-09-04T06:27:39.248Z,24.70
2018-09-04T06:30:07.779Z,21.63
2018-09-04T06:32:35.946Z,23.20
2018-09-04T06:35:04.204Z,23.00
2018-09-04T06:37:32.393Z,24.67
2018-09-04T06:40:00.573Z,25.23
2018-09-04T06:42:28.744Z,22.13
2018-09-04T06:44:56.919Z,23.43
2018-09-04T06:47:25.085Z,23.67
2018-09-04T06:49:53.252Z,24.57
2018-09-04T06:52:21.404Z,25.23
2018-09-04T06:54:49.595Z,23.20
2018-09-04T06:57:17.753Z,23.73
2018-09-04T06:59:45.905Z,22.13
2018-09-04T07:02:14.085Z,23.10
2018-09-04T07:04:42.240Z,21.27
2018-09-04T07:07:10.426Z,22.67
2018-09-04T07:09:38.742Z,23.13
2018-09-04T07:12:06.864Z,23.67
2018-09-04T07:14:35.037Z,22.93
2018-09-04T07:17:03.297Z,23.53
2018-09-04T07:19:31.507Z,22.47
2018-09-04T07:21:59.662Z,23.43
2018-09-04T07:24:27.880Z,22.70
2018-09-04T07:26:56.051Z,23.03
2018-09-04T07:29:24.256Z,23.47
2018-09-04T07:31:52.429Z,23.27
2018-09-04T07:34:20.596Z,22.00
2018-09-04T07:36:48.781Z,24.50
2018-09-04T07:39:16.954Z,24.20
2018-09-04T07:41:45.134Z,26.07
2018-09-04T07:44:13.348Z,25.77
2018-09-04T07:46:41.501Z,25.00
2018-09-04T07:49:09.647Z,25.03
2018-09-04T07:51:37.843Z,24.90
2018-09-04T07:54:06.000Z,25.20
2018-09-04T07:56:34.185Z,24.17
2018-09-04T07:59:02.349Z,24.90
2018-09-04T08:01:30.521Z,25.23
2018-09-04T08:03:58.684Z,25.13
2018-09-04T08:06:26.928Z,26.77
2018-09-04T08:08:55.137Z,25.17
2018-09-04T08:11:23.295Z,25.53
2018-09-04T08:13:51.470Z,24.97
2018-09-04T08:16:19.664Z,23.83
2018-09-04T08:18:47.801Z,23.80
2018-09-04T08:21:15.988Z,24.97
2018-09-04T08:23:44.165Z,23.80
2018-09-04T08:26:12.337Z,26.33
2018-09-04T08:28:40.502Z,25.43
2018-09-04T08:31:08.677Z,23.57
2018-09-04T08:33:36.861Z,25.43
2018-09-04T08:36:05.028Z,26.77
2018-09-04T08:38:37.463Z,24.97
2018-09-04T08:41:05.625Z,25.53
2018-09-04T08:43:33.792Z,26.43
2018-09-04T08:46:01.972Z,26.67
2018-09-04T08:48:30.145Z,26.40
2018-09-04T08:50:58.341Z,27.23
2018-09-04T08:53:26.564Z,25.07
2018-09-04T08:55:54.664Z,26.43
2018-09-04T08:58:22.860Z,26.33
2018-09-04T09:00:51.012Z,27.40
2018-09-04T09:03:19.180Z,26.53
2018-09-04T09:05:47.331Z,25.70
2018-09-04T09:08:15.473Z,26.63
2018-09-04T09:10:43.648Z,25.73
2018-09-04T09:13:11.848Z,26.07
2018-09-04T09:15:40.034Z,23.97
2018-09-04T09:18:08.236Z,23.33
2018-09-04T09:20:36.396Z,24.77
2018-09-04T09:23:04.575Z,21.83
2018-09-04T09:25:32.757Z,23.83
2018-09-04T09:28:01.185Z,22.70
2018-09-04T09:30:29.358Z,20.73
2018-09-04T09:32:57.531Z,23.13
2018-09-04T09:35:25.701Z,22.27
2018-09-04T09:37:53.896Z,21.37
2018-09-04T09:40:22.077Z,19.63
2018-09-04T09:42:50.262Z,21.00
2018-09-04T09:45:18.441Z,19.20
2018-09-04T09:47:49.568Z,19.50
2018-09-04T09:50:18.653Z,17.57
2018-09-04T09:52:47.021Z,18.17
2018-09-04T09:55:15.137Z,18.13
2018-09-04T09:57:43.337Z,17.70
2018-09-04T10:00:15.793Z,16.60
2018-09-04T10:02:50.588Z,15.93
2018-09-04T10:05:19.988Z,16.33
2018-09-04T10:07:48.209Z,15.43
2018-09-04T10:10:16.336Z,16.57
2018-09-04T10:12:44.508Z,16.27
2018-09-04T10:15:12.692Z,16.03
2018-09-04T10:17:40.870Z,16.00
2018-09-04T10:20:09.024Z,15.90
2018-09-04T10:22:37.214Z,14.73
2018-09-04T10:25:06.159Z,15.13
2018-09-04T10:27:34.330Z,12.53
2018-09-04T10:30:02.521Z,15.70
2018-09-04T10:32:30.712Z,12.57
2018-09-04T10:34:58.914Z,13.67
2018-09-04T10:37:27.086Z,12.87
2018-09-04T10:41:01.362Z,11.77
2018-09-04T10:43:30.593Z,11.07
2018-09-04T10:46:05.683Z,11.33
2018-09-04T10:48:33.948Z,10.73
2018-09-04T10:51:02.447Z,11.30
2018-09-04T10:53:30.937Z,11.47
2018-09-04T10:55:59.184Z,11.50
2018-09-04T10:58:28.134Z,10.97
2018-09-04T11:00:56.356Z,11.07
2018-09-04T11:03:24.577Z,10.67
2018-09-04T11:05:52.877Z,9.67
2018-09-04T11:08:21.044Z,9.13
2018-09-04T11:10:49.538Z,10.07
2018-09-04T11:13:17.700Z,8.57
2018-09-04T11:15:45.872Z,8.10
2018-09-04T11:18:14.018Z,7.73
2018-09-04T11:20:42.190Z,6.97
2018-09-04T11:23:10.389Z,8.10
2018-09-04T11:25:38.593Z,8.03
2018-09-04T11:28:07.009Z,8.13
2018-09-04T11:30:35.197Z,7.40
2018-09-04T11:33:03.508Z,8.73
2018-09-04T11:35:31.832Z,8.03
2018-09-04T11:38:00.041Z,7.60
2018-09-04T11:40:28.203Z,8.63
2018-09-04T11:42:56.501Z,9.43
2018-09-04T11:45:24.713Z,10.00
2018-09-04T11:47:52.953Z,8.20
2018-09-04T11:50:22.124Z,8.50
2018-09-04T11:52:50.680Z,8.03
2018-09-04T11:55:18.854Z,9.00
2018-09-04T11:57:47.028Z,7.53
2018-09-04T12:00:17.880Z,8.90
2018-09-04T12:02:46.309Z,8.57
2018-09-04T12:05:15.139Z,9.73
2018-09-04T12:07:43.313Z,10.37
2018-09-04T12:10:11.492Z,10.03
2018-09-04T12:12:39.748Z,9.57
2018-09-04T12:15:08.039Z,10.83
2018-09-04T12:17:36.222Z,11.80
2018-09-04T12:20:24.869Z,12.60
2018-09-04T12:22:53.636Z,11.63
2018-09-04T12:25:21.836Z,13.53
2018-09-04T12:27:50.264Z,13.60
2018-09-04T12:30:18.416Z,12.50
2018-09-04T12:32:46.597Z,14.03
2018-09-04T12:35:14.816Z,14.73
2018-09-04T12:37:43.696Z,16.77
2018-09-04T12:40:11.868Z,17.40
2018-09-04T12:42:40.053Z,21.23
2018-09-04T12:45:08.481Z,19.40
2018-09-04T12:47:36.636Z,22.03
2018-09-04T12:50:04.840Z,25.40
2018-09-04T12:52:33.018Z,20.30
2018-09-04T12:55:01.215Z,15.93
2018-09-04T12:57:30.661Z,15.97
2018-09-04T13:00:02.558Z,15.03
2018-09-04T13:02:30.760Z,15.83
2018-09-04T13:04:59.083Z,16.57
2018-09-04T13:07:27.235Z,19.70
2018-09-04T13:09:55.420Z,17.33
2018-09-04T13:12:23.676Z,16.40
2018-09-04T13:14:51.863Z,22.90
2018-09-04T13:17:20.084Z,70.10
2018-09-04T13:19:48.258Z,21.47
2018-09-04T13:24:59.172Z,18.37
2018-09-04T13:27:27.353Z,19.03
2018-09-04T13:29:55.588Z,17.10
2018-09-04T13:32:24.815Z,16.70
2018-09-04T13:34:52.989Z,17.47
2018-09-04T13:37:22.429Z,17.03
2018-09-04T13:39:55.227Z,15.60
2018-09-04T13:42:23.449Z,16.00
2018-09-04T13:44:54.153Z,16.40
2018-09-04T13:47:23.633Z,15.27
2018-09-04T13:49:51.895Z,15.40
2018-09-04T13:52:20.125Z,16.97
2018-09-04T13:54:48.986Z,15.03
2018-09-04T13:57:17.243Z,15.47
2018-09-04T13:59:45.631Z,15.03
2018-09-04T14:02:13.864Z,15.40
2018-09-04T14:04:42.296Z,16.20
2018-09-04T14:07:10.464Z,14.67
2018-09-04T14:09:38.750Z,16.00
2018-09-04T14:12:06.916Z,16.17
2018-09-04T14:14:35.497Z,15.53
2018-09-04T14:17:03.790Z,15.47
2018-09-04T14:19:31.963Z,14.73
2018-09-04T14:22:00.129Z,14.37
2018-09-04T14:24:28.345Z,15.00
2018-09-04T14:26:56.565Z,14.13
2018-09-04T14:29:53.967Z,15.60
2018-09-04T14:31:53.095Z,21.23
2018-09-04T14:34:21.304Z,21.77
2018-09-04T14:36:49.636Z,15.77
2018-09-04T14:39:17.669Z,16.27
2018-09-04T14:41:45.856Z,17.33
2018-09-04T14:44:14.060Z,15.60
2018-09-04T14:46:42.493Z,16.53
2018-09-04T14:49:10.689Z,15.20
2018-09-04T14:51:40.758Z,15.77
2018-09-04T14:54:09.273Z,15.07
2018-09-04T14:56:37.546Z,14.90
2018-09-04T14:59:05.738Z,14.07
2018-09-04T15:01:33.988Z,14.23
2018-09-04T15:04:02.124Z,15.43
2018-09-04T15:06:30.357Z,14.97
2018-09-04T15:08:58.506Z,14.30
2018-09-04T15:11:26.698Z,13.40
2018-09-04T15:13:54.904Z,13.97
2018-09-04T15:16:23.167Z,14.17
2018-09-04T15:18:51.416Z,14.60
2018-09-04T15:21:19.996Z,15.40
2018-09-04T15:23:48.257Z,14.93
2018-09-04T15:26:16.428Z,16.83
2018-09-04T15:28:44.624Z,15.63
2018-09-04T15:31:12.856Z,16.03
2018-09-04T15:33:41.084Z,13.37
2018-09-04T15:36:11.805Z,17.57
2018-09-04T15:38:41.166Z,17.53
2018-09-04T15:41:09.332Z,15.60
2018-09-04T15:43:37.506Z,14.87
2018-09-04T15:46:05.985Z,14.70
2018-09-04T15:48:34.183Z,15.17
2018-09-04T15:51:02.360Z,14.63
2018-09-04T15:53:31.121Z,18.33
2018-09-04T15:56:00.161Z,15.40
2018-09-04T15:58:28.323Z,16.93
2018-09-04T16:00:56.512Z,17.70
2018-09-04T16:03:24.686Z,20.43
2018-09-04T16:05:52.960Z,13.93
2018-09-04T16:08:22.067Z,15.00
2018-09-04T16:10:50.257Z,20.03
2018-09-04T16:13:18.432Z,25.57
2018-09-04T16:15:46.618Z,21.13
2018-09-04T16:18:14.786Z,18.33
2018-09-04T16:20:43.101Z,18.60
2018-09-04T16:23:11.316Z,21.40
2018-09-04T16:25:39.514Z,16.30
2018-09-04T16:28:07.806Z,15.37
2018-09-04T16:30:36.839Z,18.70
2018-09-04T16:33:06.475Z,15.97
2018-09-04T16:35:35.666Z,14.23
2018-09-04T16:38:04.732Z,18.80
2018-09-04T16:40:32.945Z,16.23
2018-09-04T16:43:01.128Z,16.17
2018-09-04T16:45:29.745Z,15.37
2018-09-04T16:47:58.229Z,17.50
2018-09-04T16:50:26.509Z,34.50
2018-09-04T16:52:54.707Z,17.27
2018-09-04T16:55:22.947Z,31.37
2018-09-04T16:57:51.237Z,30.23
2018-09-04T17:00:19.434Z,16.07
2018-09-04T17:02:47.629Z,18.67
2018-09-04T17:05:16.125Z,19.27
2018-09-04T17:07:44.340Z,14.40
2018-09-04T17:10:12.561Z,15.70
2018-09-04T17:12:40.757Z,14.53
2018-09-04T17:15:08.943Z,13.77
2018-09-04T17:17:37.113Z,12.80
2018-09-04T17:20:05.561Z,19.80
2018-09-04T17:22:33.793Z,14.30
2018-09-04T17:25:01.989Z,17.83
2018-09-04T17:27:30.156Z,16.57
2018-09-04T17:29:58.349Z,17.77
2018-09-04T17:32:26.548Z,26.73
2018-09-04T17:34:54.872Z,19.53
2018-09-04T17:37:23.252Z,19.63
2018-09-04T17:39:51.476Z,22.10
2018-09-04T17:42:19.689Z,37.07
2018-09-04T17:44:48.029Z,24.27
2018-09-04T17:47:16.226Z,34.07
2018-09-04T17:49:45.368Z,39.27
2018-09-04T17:52:13.709Z,38.17
2018-09-04T17:54:45.130Z,33.77
2018-09-04T17:57:13.288Z,31.53
2018-09-04T17:59:41.585Z,33.00
2018-09-04T18:02:09.794Z,28.73
2018-09-04T18:04:38.032Z,20.67
2018-09-04T18:07:06.225Z,18.67
2018-09-04T18:09:34.465Z,18.10
2018-09-04T18:12:02.724Z,21.93
2018-09-04T18:14:30.866Z,18.87
2018-09-04T18:16:59.057Z,19.30
2018-09-04T18:19:27.230Z,22.30
2018-09-04T18:21:55.469Z,18.50
2018-09-04T18:24:23.668Z,21.13
2018-09-04T18:26:51.856Z,17.37
2018-09-04T18:29:20.160Z,29.07
2018-09-04T18:31:48.351Z,13.50
2018-09-04T18:34:16.550Z,16.00
2018-09-04T18:36:44.733Z,21.17
2018-09-04T18:39:12.926Z,23.80
2018-09-04T18:41:41.122Z,23.47
2018-09-04T18:44:09.292Z,25.97
2018-09-04T18:46:40.958Z,20.40
2018-09-04T18:49:09.185Z,21.47
2018-09-04T18:51:37.378Z,22.50
2018-09-04T18:54:05.613Z,17.50
2018-09-04T18:56:33.804Z,17.97
2018-09-04T18:59:02.006Z,16.03
2018-09-04T19:01:30.229Z,14.40
2018-09-04T19:03:58.414Z,19.40
2018-09-04T19:06:26.605Z,15.90
2018-09-04T19:08:54.780Z,16.83
2018-09-04T19:11:22.987Z,16.33
2018-09-04T19:13:51.157Z,16.90
2018-09-04T19:16:19.350Z,15.33
2018-09-04T19:18:47.533Z,16.70
2018-09-04T19:21:15.696Z,14.90
2018-09-04T19:23:44.095Z,14.40
2018-09-04T19:26:12.767Z,16.10
2018-09-04T19:28:41.105Z,16.73
2018-09-04T19:31:09.281Z,16.93
2018-09-04T19:33:37.455Z,12.80
2018-09-04T19:36:05.656Z,13.73
2018-09-04T19:38:33.868Z,12.83
2018-09-04T19:41:02.034Z,16.63
2018-09-04T19:43:30.242Z,18.60
2018-09-04T19:45:58.432Z,19.10
2018-09-04T19:48:26.676Z,20.30
2018-09-04T19:50:54.882Z,13.60
2018-09-04T19:53:23.109Z,17.77
2018-09-04T19:55:51.315Z,16.20
2018-09-04T19:58:19.549Z,16.50
2018-09-04T20:00:47.786Z,17.00
2018-09-04T20:03:15.928Z,16.33
2018-09-04T20:05:44.116Z,17.20
2018-09-04T20:08:12.326Z,14.80
2018-09-04T20:10:40.534Z,15.03
2018-09-04T20:13:08.819Z,15.83
2018-09-04T20:15:37.132Z,16.13
2018-09-04T20:18:05.753Z,15.47
2018-09-04T20:20:33.956Z,19.57
2018-09-04T20:23:02.142Z,18.07
2018-09-04T20:25:30.321Z,17.73
2018-09-04T20:27:58.501Z,16.73
2018-09-04T20:30:26.696Z,17.17
2018-09-04T20:32:54.876Z,16.23
2018-09-04T20:35:23.082Z,16.83
2018-09-04T20:37:51.253Z,15.20
2018-09-04T20:40:19.449Z,15.40
2018-09-04T20:42:47.670Z,14.90
2018-09-04T20:45:15.877Z,15.30
2018-09-04T20:47:44.047Z,15.03
2018-09-04T20:50:12.241Z,15.67
2018-09-04T20:52:40.420Z,13.40
2018-09-04T20:55:08.616Z,15.10
2018-09-04T20:57:39.340Z,14.87
2018-09-04T21:00:20.825Z,14.57
2018-09-04T21:03:00.561Z,15.53
2018-09-04T21:05:40.191Z,14.43
2018-09-04T21:08:16.541Z,14.97
2018-09-04T21:10:45.170Z,13.60
2018-09-04T21:13:14.031Z,15.20
2018-09-04T21:15:43.132Z,16.03
2018-09-04T21:18:11.368Z,16.07
2018-09-04T21:20:39.586Z,15.10
2018-09-04T21:23:07.791Z,15.33
2018-09-04T21:25:35.977Z,16.47
2018-09-04T21:28:04.169Z,15.60
2018-09-04T21:30:32.352Z,14.63
2018-09-04T21:33:00.540Z,14.10
2018-09-04T21:35:28.779Z,12.67
2018-09-04T21:37:57.609Z,11.83
2018-09-04T21:40:25.809Z,12.07
2018-09-04T21:42:54.016Z,14.40
2018-09-04T21:45:22.218Z,15.70
2018-09-04T21:47:50.448Z,19.10
2018-09-04T21:50:18.585Z,15.00
2018-09-04T21:52:46.791Z,16.37
2018-09-04T21:55:15.005Z,17.00
2018-09-04T21:57:43.216Z,14.80
2018-09-04T22:00:11.442Z,18.20
2018-09-04T22:02:39.668Z,15.50
2018-09-04T22:05:07.929Z,13.20
2018-09-04T22:07:36.140Z,13.20
2018-09-04T22:10:04.332Z,14.97
2018-09-04T22:12:32.536Z,13.13
2018-09-04T22:15:00.765Z,13.00
2018-09-04T22:17:28.962Z,12.37
2018-09-04T22:19:57.192Z,12.53
2018-09-04T22:22:25.411Z,12.97
2018-09-04T22:24:53.601Z,12.67
2018-09-04T22:27:21.807Z,13.03
2018-09-04T22:29:50.021Z,12.37
2018-09-04T22:32:18.201Z,13.00
2018-09-04T22:34:46.420Z,11.63
2018-09-04T22:37:14.603Z,12.00
2018-09-04T22:39:42.829Z,11.67
2018-09-04T22:42:11.068Z,13.17
2018-09-04T22:44:39.326Z,13.03
2018-09-04T22:47:07.529Z,12.27
2018-09-04T22:49:35.788Z,11.53
2018-09-04T22:52:03.992Z,11.47
2018-09-04T22:54:32.178Z,11.83
2018-09-04T22:57:01.010Z,12.63
2018-09-04T22:59:29.207Z,11.73
2018-09-04T23:01:57.401Z,12.13
2018-09-04T23:04:25.590Z,12.00
2018-09-04T23:06:53.783Z,11.37
2018-09-04T23:09:22.019Z,11.50
2018-09-04T23:11:50.246Z,11.97
2018-09-04T23:14:18.444Z,16.67
2018-09-04T23:16:46.618Z,14.93
2018-09-04T23:19:14.817Z,16.30
2018-09-04T23:21:43.005Z,18.07
2018-09-04T23:24:11.214Z,30.10
2018-09-04T23:26:39.429Z,15.70
2018-09-04T23:29:07.622Z,15.53
2018-09-04T23:31:35.821Z,15.67
2018-09-04T23:34:03.997Z,13.80
2018-09-04T23:36:32.197Z,12.20
2018-09-04T23:39:00.391Z,10.83
2018-09-04T23:41:28.567Z,11.73
2018-09-04T23:43:56.762Z,11.03
2018-09-04T23:46:24.950Z,11.10
2018-09-04T23:48:53.143Z,11.17
2018-09-04T23:51:21.340Z,10.23
2018-09-04T23:53:49.521Z,10.50
2018-09-04T23:56:17.735Z,10.97
2018-09-04T23:58:45.942Z,10.50
